Cannonville, Utah
Current Conditions -  °F | °C
As of 12:53 AM on Friday 24 Oct 2014 (Local Time) from KBCE Reporting Station
Clear Clear  
Wind Chill: 23°   Ceiling: Unl
Heat Index: 30°   Visibility: 10mi
Dew Point: 25°   Wind: 7mph
Humidity: 82%   Direction: 260°W
Pressure: 30.36"   Gusts: NA
Location:  37.57°N, 112.05°W
Report Text: KBCE 240653Z AUTO 26006KT 10SM CLR M01/M04 A3036 RMK AO2 SLP213 T10111039 401781022 TSNO
Loading
Personal Weather Stations






























Interactive Weather Map
Tropical Storm Tracking
New forecast layout! Learn more

10-Day Weather Forecast

Advertisements
Track Severe Weather on mobile